Flight Track Log - Related Links

Times and Time Zones

All times are in EDT time to prevent confusion due to time zone crossing. See the AWI3766 flight status page for this flight to view local times or setup timezone preferences in your user account.

Time Position Orientation Groundspeed Altitude Reporting Facility
EDT Latitude Longitude Course Direction KTS MPH feet Rate Location/Type
Fri 07:33:00 PM 33.5376 -81.7064 47° Northeast  Level FlightAware Approximate
Fri 07:34:00 PM 33.5982 -81.6285 47° Northeast  Level FlightAware Approximate
Fri 07:35:00 PM 33.6552 -81.5470 54° Northeast  Level FlightAware Approximate
Fri 07:35:15 PM 33.5339 -81.6542 49° Northeast 301 346 10,300  Level Jacksonville Center
Fri 07:36:00 PM 33.7071 -81.4605 54° Northeast  Level FlightAware Approximate
Fri 07:36:15 PM 33.5958 -81.5686 49° Northeast 326 375 11,400  Level Jacksonville Center
Fri 07:37:00 PM 33.7682 -81.3685 49° Northeast  Level FlightAware Approximate
Fri 07:37:15 PM 33.6656 -81.4753 48° Northeast 359 413 13,400  Level Jacksonville Center
Fri 07:38:00 PM 33.8326 -81.2795 49° Northeast  Level FlightAware Approximate
Fri 07:38:15 PM 33.7375 -81.3792 48° Northeast 380 437 15,200  Level Jacksonville Center
Fri 07:39:15 PM 33.8156 -81.2778 47° Northeast 394 453 16,500 1,300 Climbing Jacksonville Center
Fri 07:40:15 PM 33.8894 -81.1739 49° Northeast 406 467 17,800 1,200 Climbing Jacksonville Center
Fri 07:41:15 PM 33.9650 -81.0697 49° Northeast 411 473 18,900 1,100 Climbing Jacksonville Center
Fri 07:42:15 PM 34.0469 -80.9628 47° Northeast 411 473 20,000 1,000 Climbing Jacksonville Center
Fri 07:43:15 PM 34.1267 -80.8581 47° Northeast 417 480 20,900 900 Climbing Jacksonville Center
Fri 07:44:15 PM 34.2061 -80.7458 49° Northeast 423 487 21,800 900 Climbing Jacksonville Center
Fri 07:45:15 PM 34.2878 -80.6383 47° Northeast 423 487 22,700 800 Climbing Jacksonville Center
Fri 07:46:15 PM 34.3692 -80.5203 50° Northeast 429 494 23,400 600 Climbing Jacksonville Center
Fri 07:47:15 PM 34.4525 -80.4097 48° Northeast 434 499 23,900 593 Climbing Jacksonville Center
Fri 07:48:57 PM 34.6208 -80.2103 44° Northeast 468 539 25,000 663 Climbing Washington Center
Fri 07:49:58 PM 34.7167 -80.1047 42° Northeast 473 544 25,700 700 Climbing Washington Center
Fri 07:50:57 PM 34.8039 -80.0058 43° Northeast 473 544 26,400 800 Climbing Washington Center
Fri 07:51:58 PM 34.8997 -79.8994 42° Northeast 468 539 27,300 787 Climbing Washington Center
Fri 07:52:59 PM 34.9953 -79.7906 43° Northeast 468 539 28,000 694 Climbing Washington Center
Fri 07:53:59 PM 35.0928 -79.6839 42° Northeast 468 539 28,700 508 Climbing Washington Center
Fri 07:54:57 PM 35.1906 -79.5744 42° Northeast 462 532 29,000 153 Climbing Washington Center
Fri 07:55:57 PM 35.2861 -79.4622 44° Northeast 462 532 29,000  Level Washington Center
Fri 07:56:58 PM 35.3961 -79.3428 41° Northeast 468 539 29,000  Level Washington Center
Fri 07:57:59 PM 35.4850 -79.2372 44° Northeast 448 516 29,000  Level Washington Center
Fri 07:58:57 PM 35.5628 -79.1464 44° Northeast 431 496 29,000  Level Washington Center
Fri 07:59:58 PM 35.6514 -79.0481 42° Northeast 426 490 29,000  Level Washington Center
Fri 08:00:59 PM 35.7400 -78.9417 44° Northeast 431 496 29,000  Level Washington Center
Fri 08:01:57 PM 35.8369 -78.8306 43° Northeast 431 496 29,000  Level Washington Center
Fri 08:02:58 PM 35.9333 -78.7344 39° Northeast 436 502 29,000 -197 Level Washington Center
Fri 08:03:59 PM 36.0314 -78.6486 35° Northeast 436 502 28,600 -694 Descending Washington Center
Fri 08:04:59 PM 36.1297 -78.5647 35° Northeast 431 496 27,600 -814 Descending Washington Center
Fri 08:05:57 PM 36.2214 -78.4808 36° Northeast 418 481 27,000 -303 Descending Washington Center
Fri 08:06:58 PM 36.3153 -78.3967 36° Northeast 413 475 27,000  Level Washington Center
Fri 08:07:59 PM 36.4131 -78.3097 36° Northeast 419 482 27,000  Level Washington Center
Fri 08:08:57 PM 36.5111 -78.2228 35° Northeast 424 488 27,000  Level Washington Center
Fri 08:09:58 PM 36.6175 -78.1281 36° Northeast 441 507 27,000  Level Washington Center
Fri 08:10:58 PM 36.7239 -78.0278 37° Northeast 463 533 27,000 -446 Level Washington Center
Fri 08:11:59 PM 36.8364 -77.9300 35° Northeast 480 552 26,100 -942 Descending Washington Center
Fri 08:12:59 PM 36.9425 -77.8319 36° Northeast 480 552 25,100 -1,017 Descending Washington Center
Fri 08:13:57 PM 37.0403 -77.7411 37° Northeast 467 537 24,100 -1,008 Descending Washington Center
Fri 08:14:58 PM 37.1378 -77.6553 35° Northeast 439 505 23,100 -984 Descending Washington Center
Fri 08:15:59 PM 37.2350 -77.5667 36° Northeast 434 499 22,100 -555 Descending Washington Center
Fri 08:16:57 PM 37.3303 -77.4803 36° Northeast 434 499 22,000 -51 Descending Washington Center
Fri 08:17:57 PM 37.4236 -77.3936 36° Northeast 424 488 22,000  Level Washington Center
Fri 08:18:58 PM 37.5228 -77.3147 32° Northeast 419 482 22,000  Level Washington Center
Fri 08:19:59 PM 37.6314 -77.2936 North 399 459 22,000 -908 Level Washington Center
Fri 08:20:57 PM 37.7444 -77.2700 North 394 453 20,200 -1,866 Descending Washington Center
Fri 08:21:58 PM 37.8511 -77.2486 North 389 448 18,300 -1,869 Descending Washington Center
Fri 08:22:59 PM 37.9536 -77.2244 11° North 389 448 16,400 -1,800 Descending Washington Center
Fri 08:23:58 PM 38.0433 -77.2106 North 374 430 14,700 -1,866 Descending Washington Center
Fri 08:24:58 PM 38.1417 -77.1917 North 363 418 12,700 -2,132 Descending Washington Center
Fri 08:25:59 PM 38.2464 -77.1675 10° North 352 405 10,400 -1,339 Descending Washington Center
Fri 08:26:59 PM 38.3258 -77.1533 North 338 389 10,000 -203 Descending Washington Center
Fri 08:27:57 PM 38.4114 -77.1364 North 315 362 10,000  Level Washington Center
Fri 08:28:58 PM 38.5056 -77.1144 10° North 309 356 10,000  Level Washington Center
Fri 08:29:59 PM 38.5914 -77.0950 10° North 309 356 10,000 -496 Level Washington Center
Fri 08:30:59 PM 38.6644 -77.0806 North 291 335 9,000 -1,220 Descending Washington Center
Fri 08:31:57 PM 38.7333 -77.0661 North 263 303 7,600 -1,412 Descending Washington Center
Fri 08:32:58 PM 38.7956 -77.0911 343° North 238 274 6,200 -797 Descending Washington Center
Fri 08:34:05 PM 38.8500 -77.1500 320° Northwest 206 237 5,900 -803 Descending Potomac TRACON
Fri 08:35:05 PM 38.8833 -77.1833 322° Northwest 183 211 4,500 -1,400 Descending Potomac TRACON
Fri 08:36:05 PM 38.9333 -77.2333 322° Northwest 201 231 3,100 -750 Descending Potomac TRACON
Fri 08:37:05 PM 38.9667 -77.1833 49° Northeast 213 245 3,000 -450 Descending Potomac TRACON
Fri 08:38:05 PM 38.9333 -77.1333 131° Southeast 172 198 2,200 -887 Descending Potomac TRACON
Fri 08:39:00 PM 38.9000 -77.0833 131° Southeast 176 203 1,300 -982 Descending Potomac TRACON

Login

Don't have an account? Register now (free) for customized features, flight alerts, and more!